createdAt,value
2022-09-12T00:01:56.408Z,13.37
2022-09-12T00:05:57.853Z,13.73
2022-09-12T00:10:00.261Z,12.97
2022-09-12T00:14:01.634Z,13.33
2022-09-12T00:18:04.370Z,12.27
2022-09-12T00:22:05.767Z,13.43
2022-09-12T00:26:07.473Z,14.57
2022-09-12T00:30:08.929Z,15.33
2022-09-12T00:34:11.873Z,14.43
2022-09-12T00:38:13.880Z,15.67
2022-09-12T00:42:15.073Z,15.53
2022-09-12T00:46:22.293Z,14.60
2022-09-12T00:50:25.309Z,14.80
2022-09-12T00:54:28.181Z,15.07
2022-09-12T00:58:30.237Z,15.47
2022-09-12T01:02:31.557Z,14.77
2022-09-12T01:06:35.909Z,15.37
2022-09-12T01:10:37.730Z,13.93
2022-09-12T01:14:39.394Z,13.97
2022-09-12T01:18:58.522Z,16.00
2022-09-12T01:23:24.289Z,15.30
2022-09-12T01:27:40.547Z,15.60
2022-09-12T01:31:45.215Z,16.13
2022-09-12T01:35:49.337Z,17.40
2022-09-12T01:39:55.644Z,18.43
2022-09-12T01:44:00.649Z,17.43
2022-09-12T01:48:07.749Z,17.10
2022-09-12T01:52:11.874Z,17.40
2022-09-12T01:56:15.884Z,16.90
2022-09-12T02:00:17.314Z,17.00
2022-09-12T02:04:20.725Z,17.77
2022-09-12T02:08:24.190Z,17.70
2022-09-12T02:12:27.314Z,17.63
2022-09-12T02:16:31.673Z,17.80
2022-09-12T02:20:47.916Z,18.60
2022-09-12T02:24:52.457Z,18.03
2022-09-12T02:28:53.709Z,17.70
2022-09-12T02:32:58.773Z,17.83
2022-09-12T02:37:04.272Z,18.13
2022-09-12T02:41:05.737Z,18.37
2022-09-12T02:45:08.145Z,17.60
2022-09-12T02:49:09.589Z,17.50
2022-09-12T02:53:12.480Z,19.07
2022-09-12T02:57:22.403Z,20.07
2022-09-12T03:01:29.329Z,21.87
2022-09-12T03:05:32.925Z,22.73
2022-09-12T03:09:37.522Z,21.53
2022-09-12T03:13:40.749Z,21.23
2022-09-12T03:17:47.981Z,20.50
2022-09-12T03:21:53.001Z,20.87
2022-09-12T03:25:57.202Z,19.87
2022-09-12T03:29:59.293Z,20.73
2022-09-12T03:34:00.809Z,20.40
2022-09-12T03:38:02.215Z,19.93
2022-09-12T03:42:04.898Z,20.83
2022-09-12T03:46:06.478Z,17.83
2022-09-12T03:50:08.069Z,20.27
2022-09-12T03:54:09.581Z,20.17
2022-09-12T03:58:12.313Z,18.20
2022-09-12T04:02:13.795Z,18.87
2022-09-12T04:06:16.376Z,19.03
2022-09-12T04:10:17.785Z,19.53
2022-09-12T04:14:20.365Z,19.60
2022-09-12T04:18:21.593Z,20.27
2022-09-12T04:22:22.849Z,20.93
2022-09-12T04:26:24.070Z,20.67
2022-09-12T04:30:26.809Z,20.67
2022-09-12T04:34:30.046Z,20.60
2022-09-12T04:38:31.352Z,20.90
2022-09-12T04:42:33.005Z,20.90
2022-09-12T04:46:36.541Z,20.97
2022-09-12T04:50:37.885Z,21.23
2022-09-12T04:54:39.225Z,21.47
2022-09-12T04:58:40.624Z,21.93
2022-09-12T05:02:43.505Z,21.47
2022-09-12T05:06:44.921Z,22.43
2022-09-12T05:10:46.153Z,23.40
2022-09-12T05:14:47.349Z,21.40
2022-09-12T05:18:50.110Z,20.77
2022-09-12T05:22:51.353Z,20.43
2022-09-12T05:26:52.777Z,21.63
2022-09-12T05:30:59.717Z,20.47
2022-09-12T05:35:02.297Z,20.00
2022-09-12T05:39:03.997Z,20.07
2022-09-12T05:43:05.194Z,20.80
2022-09-12T05:47:06.405Z,19.27
2022-09-12T05:51:09.889Z,20.00
2022-09-12T05:55:11.165Z,19.73
2022-09-12T05:59:13.488Z,20.20
2022-09-12T06:03:14.784Z,20.03
2022-09-12T06:07:17.362Z,20.13
2022-09-12T06:11:19.689Z,19.80
2022-09-12T06:15:20.913Z,20.23
2022-09-12T06:19:22.420Z,19.93
2022-09-12T06:23:25.761Z,19.57
2022-09-12T06:27:27.138Z,20.67
2022-09-12T06:31:29.229Z,19.23
2022-09-12T06:35:30.593Z,18.93
2022-09-12T06:39:33.149Z,18.70
2022-09-12T06:43:34.537Z,18.57
2022-09-12T06:47:35.889Z,18.87
2022-09-12T06:51:37.274Z,18.83
2022-09-12T06:55:40.009Z,18.77
2022-09-12T06:59:41.368Z,17.13
2022-09-12T07:03:43.162Z,16.60
2022-09-12T07:07:44.514Z,17.00
2022-09-12T07:11:47.101Z,16.03
2022-09-12T07:15:48.434Z,15.67
2022-09-12T07:19:49.825Z,14.97
2022-09-12T07:23:51.138Z,15.80
2022-09-12T07:27:53.872Z,17.30
2022-09-12T07:31:55.096Z,16.50
2022-09-12T07:36:00.444Z,16.63
2022-09-12T07:40:02.160Z,16.23
2022-09-12T07:44:07.273Z,15.93
2022-09-12T07:48:08.657Z,15.67
2022-09-12T07:52:09.924Z,15.77
2022-09-12T07:56:11.745Z,14.30
2022-09-12T08:00:14.898Z,14.47
2022-09-12T08:04:16.261Z,13.63
2022-09-12T08:08:17.630Z,13.87
2022-09-12T08:12:18.932Z,12.97
2022-09-12T08:16:22.364Z,13.53
2022-09-12T08:20:28.133Z,12.60
2022-09-12T08:24:29.665Z,12.47
2022-09-12T08:28:31.772Z,12.73
2022-09-12T08:32:35.629Z,12.10
2022-09-12T08:36:37.037Z,13.30
2022-09-12T08:40:44.313Z,12.83
2022-09-12T08:45:00.765Z,13.07
2022-09-12T08:49:04.500Z,12.17
2022-09-12T08:53:10.611Z,11.60
2022-09-12T08:57:14.008Z,11.00
2022-09-12T09:01:27.661Z,11.23
2022-09-12T09:05:34.729Z,10.87
2022-09-12T09:09:41.196Z,9.73
2022-09-12T09:13:50.388Z,9.70
2022-09-12T09:17:52.962Z,8.93
2022-09-12T09:21:57.485Z,9.27
2022-09-12T09:26:00.365Z,10.13
2022-09-12T09:30:01.965Z,8.80
2022-09-12T09:34:09.671Z,8.20
2022-09-12T09:38:18.082Z,8.57
2022-09-12T09:42:26.646Z,9.10
2022-09-12T09:46:28.222Z,8.67
2022-09-12T09:50:29.501Z,8.97
2022-09-12T09:54:34.538Z,8.03
2022-09-12T09:58:36.274Z,8.90
2022-09-12T10:02:37.847Z,6.65
2022-09-12T10:06:39.417Z,5.00
2022-09-12T10:10:52.406Z,6.85
2022-09-12T10:14:56.980Z,4.95
2022-09-12T10:18:59.028Z,5.33
2022-09-12T10:23:02.212Z,5.20
2022-09-12T10:27:09.372Z,6.33
2022-09-12T10:31:14.113Z,5.25
2022-09-12T10:35:17.723Z,4.95
2022-09-12T10:39:19.264Z,4.18
2022-09-12T10:43:26.534Z,4.55
2022-09-12T10:47:30.688Z,5.57
2022-09-12T10:51:32.068Z,4.53
2022-09-12T10:55:34.736Z,4.40
2022-09-12T10:59:44.216Z,4.38
2022-09-12T11:03:52.735Z,3.53
2022-09-12T11:07:55.445Z,3.35
2022-09-12T11:12:02.116Z,3.03
2022-09-12T11:16:12.502Z,3.93
2022-09-12T11:20:27.877Z,3.30
2022-09-12T11:24:45.633Z,2.90
2022-09-12T11:28:49.860Z,2.97
2022-09-12T11:33:01.624Z,3.22
2022-09-12T11:37:13.307Z,2.58
2022-09-12T11:41:20.186Z,3.13
2022-09-12T11:45:23.748Z,2.97
2022-09-12T11:49:33.553Z,2.70
2022-09-12T11:53:38.872Z,2.80
2022-09-12T11:57:41.561Z,2.60
2022-09-12T12:01:48.506Z,2.63
2022-09-12T12:05:53.481Z,3.00
2022-09-12T12:09:54.848Z,2.38
2022-09-12T12:13:57.428Z,2.58
2022-09-12T12:18:02.620Z,2.50
2022-09-12T12:22:14.440Z,2.50
2022-09-12T12:26:41.721Z,2.60
2022-09-12T12:31:01.089Z,2.40
2022-09-12T12:35:18.637Z,2.65
2022-09-12T12:39:44.080Z,3.15
2022-09-12T12:43:47.093Z,2.90
2022-09-12T12:47:50.493Z,2.83
2022-09-12T12:51:56.421Z,2.63
2022-09-12T12:55:57.743Z,2.78
2022-09-12T13:00:01.795Z,2.60
2022-09-12T13:04:04.212Z,2.53
2022-09-12T13:08:07.589Z,2.50
2022-09-12T13:12:10.784Z,2.80
2022-09-12T13:16:28.392Z,2.60
2022-09-12T13:20:32.433Z,2.53
2022-09-12T13:24:41.884Z,2.93
2022-09-12T13:28:43.268Z,2.90
2022-09-12T13:32:45.982Z,2.50
2022-09-12T13:36:54.380Z,2.40
2022-09-12T13:41:13.398Z,2.40
2022-09-12T13:45:18.040Z,2.72
2022-09-12T13:49:22.492Z,2.60
2022-09-12T13:53:24.867Z,2.50
2022-09-12T13:57:30.835Z,2.50
2022-09-12T14:01:39.263Z,2.40
2022-09-12T14:05:42.900Z,2.40
2022-09-12T14:09:45.185Z,2.60
2022-09-12T14:13:46.476Z,2.27
2022-09-12T14:17:49.662Z,2.30
2022-09-12T14:21:53.161Z,2.60
2022-09-12T14:25:54.680Z,2.67
2022-09-12T14:30:00.403Z,2.10
2022-09-12T14:34:09.204Z,2.40
2022-09-12T14:38:18.464Z,2.40
2022-09-12T14:42:20.983Z,2.30
2022-09-12T14:46:24.059Z,2.30
2022-09-12T14:50:26.283Z,2.50
2022-09-12T14:54:45.519Z,2.47
2022-09-12T14:58:48.331Z,2.70
2022-09-12T15:02:50.416Z,2.50
2022-09-12T15:06:51.623Z,2.87
2022-09-12T15:10:53.107Z,2.50
2022-09-12T15:14:58.883Z,2.60
2022-09-12T15:19:00.343Z,2.50
2022-09-12T15:23:01.759Z,2.30
2022-09-12T15:27:05.359Z,2.70
2022-09-12T15:31:12.441Z,2.37
2022-09-12T15:35:14.987Z,2.60
2022-09-12T15:39:16.247Z,2.60
2022-09-12T15:43:17.647Z,2.57
2022-09-12T15:47:20.291Z,2.40
2022-09-12T15:51:21.911Z,2.40
2022-09-12T15:55:23.834Z,2.50
2022-09-12T15:59:25.307Z,2.13
2022-09-12T16:03:28.691Z,2.50
2022-09-12T16:07:30.172Z,2.50
2022-09-12T16:11:31.552Z,2.50
2022-09-12T16:15:32.978Z,2.30
2022-09-12T16:19:35.830Z,2.20
2022-09-12T16:23:37.216Z,2.27
2022-09-12T16:27:38.748Z,2.13
2022-09-12T16:31:40.191Z,2.10
2022-09-12T16:35:42.783Z,1.97
2022-09-12T16:39:44.245Z,2.13
2022-09-12T16:43:45.743Z,2.17
2022-09-12T16:47:47.074Z,2.10
2022-09-12T16:51:49.858Z,2.40
2022-09-12T16:55:51.318Z,2.17
2022-09-12T16:59:52.569Z,2.23
2022-09-12T17:03:54.498Z,2.33
2022-09-12T17:07:57.287Z,2.03
2022-09-12T17:11:58.530Z,2.13
2022-09-12T17:16:00.001Z,2.00
2022-09-12T17:20:01.453Z,1.90
2022-09-12T17:24:04.307Z,2.00
2022-09-12T17:28:05.706Z,2.10
2022-09-12T17:32:07.130Z,2.10
2022-09-12T17:36:09.615Z,2.27
2022-09-12T17:40:12.509Z,1.90
2022-09-12T17:44:14.566Z,14.67
2022-09-12T17:48:16.039Z,2.30
2022-09-12T17:52:17.275Z,1.70
2022-09-12T17:56:19.910Z,2.07
2022-09-12T18:00:21.278Z,2.00
2022-09-12T18:04:22.531Z,3.10
2022-09-12T18:08:24.222Z,3.07
2022-09-12T18:12:26.846Z,4.83
2022-09-12T18:16:28.246Z,5.20
2022-09-12T18:20:29.514Z,3.90
2022-09-12T18:24:30.806Z,5.93
2022-09-12T18:28:34.162Z,3.07
2022-09-12T18:32:35.619Z,3.80
2022-09-12T18:36:36.875Z,3.60
2022-09-12T18:40:38.266Z,2.70
2022-09-12T18:44:40.846Z,2.43
2022-09-12T18:48:42.375Z,3.70
2022-09-12T18:52:43.918Z,2.70
2022-09-12T18:56:45.146Z,2.47
2022-09-12T19:00:47.937Z,2.73
2022-09-12T19:04:49.367Z,2.10
2022-09-12T19:08:51.222Z,2.50
2022-09-12T19:12:52.466Z,2.47
2022-09-12T19:16:55.198Z,1.97
2022-09-12T19:20:56.678Z,1.80
2022-09-12T19:24:57.920Z,1.63
2022-09-12T19:28:59.235Z,1.70
2022-09-12T19:33:02.238Z,1.70
2022-09-12T19:37:03.746Z,1.80
2022-09-12T19:41:06.634Z,1.80
2022-09-12T19:45:08.161Z,1.70
2022-09-12T19:49:11.615Z,1.77
2022-09-12T19:53:12.874Z,1.60
2022-09-12T19:57:14.106Z,1.60
2022-09-12T20:01:17.032Z,1.80
2022-09-12T20:05:19.714Z,1.70
2022-09-12T20:09:20.953Z,1.37
2022-09-12T20:13:22.162Z,1.73
2022-09-12T20:17:23.439Z,1.47
2022-09-12T20:21:27.022Z,1.33
2022-09-12T20:25:28.398Z,1.30
2022-09-12T20:29:29.829Z,1.43
2022-09-12T20:33:31.209Z,1.30
2022-09-12T20:37:33.810Z,1.40
2022-09-12T20:41:35.187Z,1.27
2022-09-12T20:45:39.893Z,1.20
2022-09-12T20:49:41.269Z,1.20
2022-09-12T20:53:43.837Z,1.23
2022-09-12T20:57:45.082Z,1.60
2022-09-12T21:01:46.397Z,1.30
2022-09-12T21:05:47.705Z,1.30
2022-09-12T21:09:50.425Z,1.47
2022-09-12T21:13:52.112Z,1.30
2022-09-12T21:17:54.179Z,1.37
2022-09-12T21:21:55.406Z,1.40
2022-09-12T21:25:58.524Z,1.30
2022-09-12T21:29:59.834Z,1.30
2022-09-12T21:34:01.085Z,1.30
2022-09-12T21:38:02.481Z,1.27
2022-09-12T21:42:05.393Z,1.60
2022-09-12T21:46:07.193Z,1.30
2022-09-12T21:50:08.981Z,1.40
2022-09-12T21:54:10.370Z,1.60
2022-09-12T21:58:13.105Z,1.50
2022-09-12T22:02:14.610Z,1.60
2022-09-12T22:06:17.779Z,1.60
2022-09-12T22:10:21.913Z,1.43
2022-09-12T22:14:24.725Z,1.50
2022-09-12T22:18:25.965Z,1.60
2022-09-12T22:22:27.341Z,1.60
2022-09-12T22:26:28.778Z,1.50
2022-09-12T22:30:31.374Z,1.57
2022-09-12T22:34:32.613Z,1.80
2022-09-12T22:38:33.983Z,1.50
2022-09-12T22:42:35.226Z,1.57
2022-09-12T22:46:38.060Z,1.60
2022-09-12T22:50:39.579Z,1.80
2022-09-12T22:54:40.990Z,1.70
2022-09-12T22:58:42.413Z,1.60
2022-09-12T23:02:45.024Z,1.40
2022-09-12T23:06:46.412Z,1.80
2022-09-12T23:10:47.688Z,1.50
2022-09-12T23:14:48.935Z,1.60
2022-09-12T23:18:52.045Z,1.70
2022-09-12T23:22:53.321Z,1.87
2022-09-12T23:26:54.725Z,2.00
2022-09-12T23:30:56.427Z,1.60
2022-09-12T23:34:59.002Z,2.10
2022-09-12T23:39:00.585Z,1.90
2022-09-12T23:43:01.781Z,1.70
2022-09-12T23:47:03.243Z,1.60
2022-09-12T23:51:06.348Z,1.77
2022-09-12T23:55:08.101Z,1.70
2022-09-12T23:59:09.492Z,1.63
